sensor_id;sensor_type;location;lat;lon;timestamp;temperature;humidity
60860;DHT22;46694;54.382;9.708;2023-06-01T00:01:12;12.20;99.90
60860;DHT22;46694;54.382;9.708;2023-06-01T00:03:52;12.20;99.90
60860;DHT22;46694;54.382;9.708;2023-06-01T00:06:31;12.20;99.90
60860;DHT22;46694;54.382;9.708;2023-06-01T00:09:11;12.20;99.90
60860;DHT22;46694;54.382;9.708;2023-06-01T00:11:50;12.20;99.90
60860;DHT22;46694;54.382;9.708;2023-06-01T00:14:30;12.20;99.90
60860;DHT22;46694;54.382;9.708;2023-06-01T00:17:09;12.20;99.90
60860;DHT22;46694;54.382;9.708;2023-06-01T00:19:49;12.30;99.90
60860;DHT22;46694;54.382;9.708;2023-06-01T00:22:28;12.30;99.90
60860;DHT22;46694;54.382;9.708;2023-06-01T00:25:13;12.30;99.90
60860;DHT22;46694;54.382;9.708;2023-06-01T00:27:52;12.30;99.90
60860;DHT22;46694;54.382;9.708;2023-06-01T00:30:32;12.30;99.90
60860;DHT22;46694;54.382;9.708;2023-06-01T00:33:11;12.30;99.90
60860;DHT22;46694;54.382;9.708;2023-06-01T00:35:51;12.20;99.90
60860;DHT22;46694;54.382;9.708;2023-06-01T00:38:30;12.20;99.90
60860;DHT22;46694;54.382;9.708;2023-06-01T00:41:10;12.20;99.90
60860;DHT22;46694;54.382;9.708;2023-06-01T00:43:50;12.20;99.90
60860;DHT22;46694;54.382;9.708;2023-06-01T00:46:30;12.20;99.90
60860;DHT22;46694;54.382;9.708;2023-06-01T00:49:10;12.20;99.90
60860;DHT22;46694;54.382;9.708;2023-06-01T00:51:49;12.20;99.90
60860;DHT22;46694;54.382;9.708;2023-06-01T00:54:28;12.20;99.90
60860;DHT22;46694;54.382;9.708;2023-06-01T00:57:08;12.20;99.90
60860;DHT22;46694;54.382;9.708;2023-06-01T00:59:47;12.20;99.90
60860;DHT22;46694;54.382;9.708;2023-06-01T01:02:27;12.20;99.90
60860;DHT22;46694;54.382;9.708;2023-06-01T01:05:11;12.20;99.90
60860;DHT22;46694;54.382;9.708;2023-06-01T01:07:58;12.20;99.90
60860;DHT22;46694;54.382;9.708;2023-06-01T01:19:43;12.30;99.90
60860;DHT22;46694;54.382;9.708;2023-06-01T01:29:28;12.20;99.90
60860;DHT22;46694;54.382;9.708;2023-06-01T01:32:11;12.30;99.90
60860;DHT22;46694;54.382;9.708;2023-06-01T01:34:51;12.30;99.90
60860;DHT22;46694;54.382;9.708;2023-06-01T01:37:34;12.30;99.90
60860;DHT22;46694;54.382;9.708;2023-06-01T01:40:14;12.40;99.90
60860;DHT22;46694;54.382;9.708;2023-06-01T01:42:53;12.30;99.90
60860;DHT22;46694;54.382;9.708;2023-06-01T01:45:34;12.30;99.90
60860;DHT22;46694;54.382;9.708;2023-06-01T01:48:21;12.30;99.90
60860;DHT22;46694;54.382;9.708;2023-06-01T01:51:10;12.30;99.90
60860;DHT22;46694;54.382;9.708;2023-06-01T01:53:51;12.30;99.90
60860;DHT22;46694;54.382;9.708;2023-06-01T01:56:31;12.30;99.90
60860;DHT22;46694;54.382;9.708;2023-06-01T01:59:12;12.40;99.90
60860;DHT22;46694;54.382;9.708;2023-06-01T02:01:52;12.30;99.90
60860;DHT22;46694;54.382;9.708;2023-06-01T02:04:31;12.40;99.90
60860;DHT22;46694;54.382;9.708;2023-06-01T02:07:11;12.30;99.90
60860;DHT22;46694;54.382;9.708;2023-06-01T02:09:51;12.30;99.90
60860;DHT22;46694;54.382;9.708;2023-06-01T02:12:33;12.30;99.90
60860;DHT22;46694;54.382;9.708;2023-06-01T02:15:12;12.40;99.90
60860;DHT22;46694;54.382;9.708;2023-06-01T02:17:52;12.40;99.90
60860;DHT22;46694;54.382;9.708;2023-06-01T02:20:33;12.40;99.90
60860;DHT22;46694;54.382;9.708;2023-06-01T02:23:12;12.40;99.90
60860;DHT22;46694;54.382;9.708;2023-06-01T02:25:52;12.30;99.90
60860;DHT22;46694;54.382;9.708;2023-06-01T02:28:31;12.30;99.90
60860;DHT22;46694;54.382;9.708;2023-06-01T02:31:12;12.20;99.90
60860;DHT22;46694;54.382;9.708;2023-06-01T02:33:53;12.20;99.90
60860;DHT22;46694;54.382;9.708;2023-06-01T02:36:32;12.20;99.90
60860;DHT22;46694;54.382;9.708;2023-06-01T02:39:14;12.20;99.90
60860;DHT22;46694;54.382;9.708;2023-06-01T02:41:53;12.20;99.90
60860;DHT22;46694;54.382;9.708;2023-06-01T02:44:33;12.10;99.90
60860;DHT22;46694;54.382;9.708;2023-06-01T02:47:13;12.10;99.90
60860;DHT22;46694;54.382;9.708;2023-06-01T02:49:52;12.20;99.90
60860;DHT22;46694;54.382;9.708;2023-06-01T02:52:31;12.20;99.90
60860;DHT22;46694;54.382;9.708;2023-06-01T02:55:11;12.20;99.90
60860;DHT22;46694;54.382;9.708;2023-06-01T02:57:50;12.20;99.90
60860;DHT22;46694;54.382;9.708;2023-06-01T03:00:30;12.10;99.90
60860;DHT22;46694;54.382;9.708;2023-06-01T03:03:11;12.10;99.90
60860;DHT22;46694;54.382;9.708;2023-06-01T03:05:52;12.20;99.90
60860;DHT22;46694;54.382;9.708;2023-06-01T03:08:31;12.20;99.90
60860;DHT22;46694;54.382;9.708;2023-06-01T03:11:11;12.20;99.90
60860;DHT22;46694;54.382;9.708;2023-06-01T03:13:51;12.20;99.90
60860;DHT22;46694;54.382;9.708;2023-06-01T03:16:30;12.10;99.90
60860;DHT22;46694;54.382;9.708;2023-06-01T03:19:10;12.10;99.90
60860;DHT22;46694;54.382;9.708;2023-06-01T03:21:49;12.10;99.90
60860;DHT22;46694;54.382;9.708;2023-06-01T03:24:29;12.10;99.90
60860;DHT22;46694;54.382;9.708;2023-06-01T03:27:09;12.00;99.90
60860;DHT22;46694;54.382;9.708;2023-06-01T03:29:50;12.00;99.90
60860;DHT22;46694;54.382;9.708;2023-06-01T03:32:30;12.00;99.90
60860;DHT22;46694;54.382;9.708;2023-06-01T03:35:12;12.10;99.90
60860;DHT22;46694;54.382;9.708;2023-06-01T03:37:52;12.10;99.90
60860;DHT22;46694;54.382;9.708;2023-06-01T03:40:31;12.10;99.90
60860;DHT22;46694;54.382;9.708;2023-06-01T03:43:11;12.20;99.90
60860;DHT22;46694;54.382;9.708;2023-06-01T03:45:51;12.20;99.90
60860;DHT22;46694;54.382;9.708;2023-06-01T03:48:31;12.20;99.90
60860;DHT22;46694;54.382;9.708;2023-06-01T03:51:10;12.20;99.90
60860;DHT22;46694;54.382;9.708;2023-06-01T03:53:50;12.20;99.90
60860;DHT22;46694;54.382;9.708;2023-06-01T03:56:30;12.20;99.90
60860;DHT22;46694;54.382;9.708;2023-06-01T03:59:10;12.20;99.90
60860;DHT22;46694;54.382;9.708;2023-06-01T04:01:49;12.20;99.90
60860;DHT22;46694;54.382;9.708;2023-06-01T04:04:30;12.20;99.90
60860;DHT22;46694;54.382;9.708;2023-06-01T04:07:11;12.20;99.90
60860;DHT22;46694;54.382;9.708;2023-06-01T04:09:53;12.20;99.90
60860;DHT22;46694;54.382;9.708;2023-06-01T04:12:33;12.10;99.90
60860;DHT22;46694;54.382;9.708;2023-06-01T04:15:14;12.10;99.90
60860;DHT22;46694;54.382;9.708;2023-06-01T04:17:55;12.10;99.90
60860;DHT22;46694;54.382;9.708;2023-06-01T04:20:34;12.10;99.90
60860;DHT22;46694;54.382;9.708;2023-06-01T04:23:14;12.10;99.90
60860;DHT22;46694;54.382;9.708;2023-06-01T04:25:53;12.20;99.90
60860;DHT22;46694;54.382;9.708;2023-06-01T04:28:39;12.20;99.90
60860;DHT22;46694;54.382;9.708;2023-06-01T04:31:23;12.20;99.90
60860;DHT22;46694;54.382;9.708;2023-06-01T04:34:02;12.20;99.90
60860;DHT22;46694;54.382;9.708;2023-06-01T04:36:42;12.20;99.90
60860;DHT22;46694;54.382;9.708;2023-06-01T04:39:21;12.30;99.90
60860;DHT22;46694;54.382;9.708;2023-06-01T04:42:01;12.30;99.90
60860;DHT22;46694;54.382;9.708;2023-06-01T04:44:40;12.30;99.90
60860;DHT22;46694;54.382;9.708;2023-06-01T04:47:20;12.40;99.90
60860;DHT22;46694;54.382;9.708;2023-06-01T04:50:06;12.40;99.90
60860;DHT22;46694;54.382;9.708;2023-06-01T04:52:48;12.40;99.90
60860;DHT22;46694;54.382;9.708;2023-06-01T04:55:28;12.40;99.90
60860;DHT22;46694;54.382;9.708;2023-06-01T04:58:07;12.40;99.90
60860;DHT22;46694;54.382;9.708;2023-06-01T05:00:47;12.40;99.90
60860;DHT22;46694;54.382;9.708;2023-06-01T05:03:26;12.40;99.90
60860;DHT22;46694;54.382;9.708;2023-06-01T05:06:06;12.40;99.90
60860;DHT22;46694;54.382;9.708;2023-06-01T05:08:46;12.40;99.90
60860;DHT22;46694;54.382;9.708;2023-06-01T05:11:26;12.40;99.90
60860;DHT22;46694;54.382;9.708;2023-06-01T05:14:07;12.40;99.90
60860;DHT22;46694;54.382;9.708;2023-06-01T05:16:46;12.50;99.90
60860;DHT22;46694;54.382;9.708;2023-06-01T05:19:27;12.50;99.90
60860;DHT22;46694;54.382;9.708;2023-06-01T05:22:07;12.60;99.90
60860;DHT22;46694;54.382;9.708;2023-06-01T05:24:46;12.70;99.90
60860;DHT22;46694;54.382;9.708;2023-06-01T05:27:26;12.80;99.90
60860;DHT22;46694;54.382;9.708;2023-06-01T05:30:06;12.80;99.90
60860;DHT22;46694;54.382;9.708;2023-06-01T05:32:46;12.80;99.90
60860;DHT22;46694;54.382;9.708;2023-06-01T05:35:25;12.90;99.90
60860;DHT22;46694;54.382;9.708;2023-06-01T05:38:05;12.90;99.90
60860;DHT22;46694;54.382;9.708;2023-06-01T05:40:45;12.90;99.90
60860;DHT22;46694;54.382;9.708;2023-06-01T05:43:24;13.10;99.90
60860;DHT22;46694;54.382;9.708;2023-06-01T05:46:04;13.10;99.90
60860;DHT22;46694;54.382;9.708;2023-06-01T05:48:45;13.10;99.90
60860;DHT22;46694;54.382;9.708;2023-06-01T05:51:25;13.00;99.90
60860;DHT22;46694;54.382;9.708;2023-06-01T05:54:05;13.10;99.90
60860;DHT22;46694;54.382;9.708;2023-06-01T05:56:44;13.30;99.90
60860;DHT22;46694;54.382;9.708;2023-06-01T05:59:24;13.40;99.90
60860;DHT22;46694;54.382;9.708;2023-06-01T06:02:03;13.60;99.90
60860;DHT22;46694;54.382;9.708;2023-06-01T06:04:43;13.60;99.90
60860;DHT22;46694;54.382;9.708;2023-06-01T06:07:23;13.70;99.90
60860;DHT22;46694;54.382;9.708;2023-06-01T06:10:03;13.60;99.90
60860;DHT22;46694;54.382;9.708;2023-06-01T06:12:43;13.70;99.90
60860;DHT22;46694;54.382;9.708;2023-06-01T06:15:22;13.70;99.90
60860;DHT22;46694;54.382;9.708;2023-06-01T06:18:02;13.80;99.90
60860;DHT22;46694;54.382;9.708;2023-06-01T06:20:41;13.90;99.90
60860;DHT22;46694;54.382;9.708;2023-06-01T06:23:21;14.00;99.90
60860;DHT22;46694;54.382;9.708;2023-06-01T06:26:00;14.10;99.90
60860;DHT22;46694;54.382;9.708;2023-06-01T06:28:40;14.10;99.90
60860;DHT22;46694;54.382;9.708;2023-06-01T06:31:20;14.10;99.90
60860;DHT22;46694;54.382;9.708;2023-06-01T06:34:00;14.10;99.90
60860;DHT22;46694;54.382;9.708;2023-06-01T06:36:39;14.10;99.90
60860;DHT22;46694;54.382;9.708;2023-06-01T06:39:19;14.20;99.90
60860;DHT22;46694;54.382;9.708;2023-06-01T06:42:00;14.10;99.90
60860;DHT22;46694;54.382;9.708;2023-06-01T06:44:41;14.00;99.90
60860;DHT22;46694;54.382;9.708;2023-06-01T06:47:20;14.00;99.90
60860;DHT22;46694;54.382;9.708;2023-06-01T06:50:00;14.10;99.90
60860;DHT22;46694;54.382;9.708;2023-06-01T06:52:40;14.30;99.90
60860;DHT22;46694;54.382;9.708;2023-06-01T06:55:19;14.40;99.90
60860;DHT22;46694;54.382;9.708;2023-06-01T06:57:59;14.50;99.90
60860;DHT22;46694;54.382;9.708;2023-06-01T07:00:43;14.50;99.90
60860;DHT22;46694;54.382;9.708;2023-06-01T07:03:22;14.60;99.90
60860;DHT22;46694;54.382;9.708;2023-06-01T07:06:02;14.70;99.90
60860;DHT22;46694;54.382;9.708;2023-06-01T07:08:41;14.70;99.90
60860;DHT22;46694;54.382;9.708;2023-06-01T07:11:21;14.70;99.90
60860;DHT22;46694;54.382;9.708;2023-06-01T07:14:01;14.90;99.90
60860;DHT22;46694;54.382;9.708;2023-06-01T07:16:40;15.10;99.90
60860;DHT22;46694;54.382;9.708;2023-06-01T07:19:20;15.30;99.90
60860;DHT22;46694;54.382;9.708;2023-06-01T07:22:00;15.60;99.90
60860;DHT22;46694;54.382;9.708;2023-06-01T07:24:39;15.90;99.90
60860;DHT22;46694;54.382;9.708;2023-06-01T07:27:19;16.10;99.90
60860;DHT22;46694;54.382;9.708;2023-06-01T07:29:59;16.10;99.90
60860;DHT22;46694;54.382;9.708;2023-06-01T07:32:39;16.20;99.90
60860;DHT22;46694;54.382;9.708;2023-06-01T07:35:18;16.50;99.90
60860;DHT22;46694;54.382;9.708;2023-06-01T07:37:58;16.60;99.90
60860;DHT22;46694;54.382;9.708;2023-06-01T07:40:38;16.50;99.90
60860;DHT22;46694;54.382;9.708;2023-06-01T07:43:17;16.50;99.90
60860;DHT22;46694;54.382;9.708;2023-06-01T07:45:57;16.40;99.90
60860;DHT22;46694;54.382;9.708;2023-06-01T07:48:36;16.40;99.90
60860;DHT22;46694;54.382;9.708;2023-06-01T07:51:18;16.40;99.90
60860;DHT22;46694;54.382;9.708;2023-06-01T07:53:57;16.70;99.90
60860;DHT22;46694;54.382;9.708;2023-06-01T07:56:38;17.10;99.90
60860;DHT22;46694;54.382;9.708;2023-06-01T07:59:18;17.40;99.90
60860;DHT22;46694;54.382;9.708;2023-06-01T08:01:58;17.60;99.90
60860;DHT22;46694;54.382;9.708;2023-06-01T08:04:39;17.80;99.90
60860;DHT22;46694;54.382;9.708;2023-06-01T08:07:18;18.10;99.90
60860;DHT22;46694;54.382;9.708;2023-06-01T08:09:59;18.40;99.90
60860;DHT22;46694;54.382;9.708;2023-06-01T08:12:38;18.90;99.90
60860;DHT22;46694;54.382;9.708;2023-06-01T08:15:18;19.60;99.90
60860;DHT22;46694;54.382;9.708;2023-06-01T08:17:59;19.70;99.90
60860;DHT22;46694;54.382;9.708;2023-06-01T08:20:39;19.40;99.90
60860;DHT22;46694;54.382;9.708;2023-06-01T08:23:18;19.40;99.90
60860;DHT22;46694;54.382;9.708;2023-06-01T08:26:01;19.70;99.90
60860;DHT22;46694;54.382;9.708;2023-06-01T08:28:41;19.90;99.90
60860;DHT22;46694;54.382;9.708;2023-06-01T08:31:22;19.80;99.90
60860;DHT22;46694;54.382;9.708;2023-06-01T08:34:02;19.70;99.90
60860;DHT22;46694;54.382;9.708;2023-06-01T08:36:41;20.00;99.90
60860;DHT22;46694;54.382;9.708;2023-06-01T08:39:24;20.30;99.90
60860;DHT22;46694;54.382;9.708;2023-06-01T08:42:08;20.70;99.90
60860;DHT22;46694;54.382;9.708;2023-06-01T08:44:53;20.80;99.90
60860;DHT22;46694;54.382;9.708;2023-06-01T08:47:35;21.10;99.90
60860;DHT22;46694;54.382;9.708;2023-06-01T08:50:17;21.70;99.90
60860;DHT22;46694;54.382;9.708;2023-06-01T08:52:57;22.30;99.90
60860;DHT22;46694;54.382;9.708;2023-06-01T08:55:38;22.30;99.00
60860;DHT22;46694;54.382;9.708;2023-06-01T08:58:17;22.00;98.20
60860;DHT22;46694;54.382;9.708;2023-06-01T09:00:58;21.30;98.20
60860;DHT22;46694;54.382;9.708;2023-06-01T09:03:38;20.80;98.70
60860;DHT22;46694;54.382;9.708;2023-06-01T09:06:17;20.70;99.10
60860;DHT22;46694;54.382;9.708;2023-06-01T09:08:57;20.60;99.00
60860;DHT22;46694;54.382;9.708;2023-06-01T09:11:37;20.50;99.50
60860;DHT22;46694;54.382;9.708;2023-06-01T09:14:20;20.80;99.30
60860;DHT22;46694;54.382;9.708;2023-06-01T09:17:01;21.00;98.90
60860;DHT22;46694;54.382;9.708;2023-06-01T09:19:44;21.50;98.80
60860;DHT22;46694;54.382;9.708;2023-06-01T09:22:23;21.60;97.70
60860;DHT22;46694;54.382;9.708;2023-06-01T09:25:03;21.40;97.50
60860;DHT22;46694;54.382;9.708;2023-06-01T09:27:48;21.30;97.30
60860;DHT22;46694;54.382;9.708;2023-06-01T09:30:42;21.00;97.00
60860;DHT22;46694;54.382;9.708;2023-06-01T09:33:23;20.70;97.80
60860;DHT22;46694;54.382;9.708;2023-06-01T09:36:04;20.70;97.60
60860;DHT22;46694;54.382;9.708;2023-06-01T09:38:44;20.50;97.30
60860;DHT22;46694;54.382;9.708;2023-06-01T09:41:24;20.30;97.60
60860;DHT22;46694;54.382;9.708;2023-06-01T09:44:04;20.40;97.50
60860;DHT22;46694;54.382;9.708;2023-06-01T09:46:52;20.50;97.20
60860;DHT22;46694;54.382;9.708;2023-06-01T09:49:43;20.40;97.40
60860;DHT22;46694;54.382;9.708;2023-06-01T09:52:23;20.60;97.60
60860;DHT22;46694;54.382;9.708;2023-06-01T09:55:14;20.90;97.50
60860;DHT22;46694;54.382;9.708;2023-06-01T09:58:18;21.20;97.10
60860;DHT22;46694;54.382;9.708;2023-06-01T10:00:59;21.30;96.80
60860;DHT22;46694;54.382;9.708;2023-06-01T10:03:42;21.70;96.30
60860;DHT22;46694;54.382;9.708;2023-06-01T10:06:21;21.90;96.20
60860;DHT22;46694;54.382;9.708;2023-06-01T10:09:02;21.90;95.40
60860;DHT22;46694;54.382;9.708;2023-06-01T10:11:43;21.90;95.50
60860;DHT22;46694;54.382;9.708;2023-06-01T10:14:24;22.10;95.20
60860;DHT22;46694;54.382;9.708;2023-06-01T10:17:05;22.20;95.00
60860;DHT22;46694;54.382;9.708;2023-06-01T10:19:45;22.60;94.80
60860;DHT22;46694;54.382;9.708;2023-06-01T10:22:24;22.90;93.90
60860;DHT22;46694;54.382;9.708;2023-06-01T10:25:05;22.90;93.40
60860;DHT22;46694;54.382;9.708;2023-06-01T10:28:06;23.00;93.20
60860;DHT22;46694;54.382;9.708;2023-06-01T10:34:43;22.90;92.20
60860;DHT22;46694;54.382;9.708;2023-06-01T10:37:23;22.60;92.00
60860;DHT22;46694;54.382;9.708;2023-06-01T10:40:20;22.60;92.60
60860;DHT22;46694;54.382;9.708;2023-06-01T10:43:00;22.80;92.20
60860;DHT22;46694;54.382;9.708;2023-06-01T10:45:40;22.60;91.90
60860;DHT22;46694;54.382;9.708;2023-06-01T10:48:53;22.40;91.80
60860;DHT22;46694;54.382;9.708;2023-06-01T10:51:33;22.20;92.00
60860;DHT22;46694;54.382;9.708;2023-06-01T10:54:31;22.10;92.00
60860;DHT22;46694;54.382;9.708;2023-06-01T10:57:21;22.00;91.90
60860;DHT22;46694;54.382;9.708;2023-06-01T11:03:01;21.80;91.70
60860;DHT22;46694;54.382;9.708;2023-06-01T11:11:02;22.20;91.20
60860;DHT22;46694;54.382;9.708;2023-06-01T11:13:44;22.20;91.30
60860;DHT22;46694;54.382;9.708;2023-06-01T11:16:44;22.30;91.30
60860;DHT22;46694;54.382;9.708;2023-06-01T11:19:25;22.30;91.40
60860;DHT22;46694;54.382;9.708;2023-06-01T11:22:06;22.50;91.10
60860;DHT22;46694;54.382;9.708;2023-06-01T11:24:51;22.50;91.00
60860;DHT22;46694;54.382;9.708;2023-06-01T11:27:34;22.50;91.20
60860;DHT22;46694;54.382;9.708;2023-06-01T11:30:19;22.60;91.00
60860;DHT22;46694;54.382;9.708;2023-06-01T11:32:59;22.40;90.80
60860;DHT22;46694;54.382;9.708;2023-06-01T11:35:38;22.50;90.90
60860;DHT22;46694;54.382;9.708;2023-06-01T11:38:18;22.60;90.80
60860;DHT22;46694;54.382;9.708;2023-06-01T11:40:58;22.60;90.30
60860;DHT22;46694;54.382;9.708;2023-06-01T11:43:39;22.70;90.40
60860;DHT22;46694;54.382;9.708;2023-06-01T11:46:18;22.90;90.30
60860;DHT22;46694;54.382;9.708;2023-06-01T11:49:02;22.90;89.90
60860;DHT22;46694;54.382;9.708;2023-06-01T11:51:46;22.80;89.70
60860;DHT22;46694;54.382;9.708;2023-06-01T11:54:27;22.80;88.20
60860;DHT22;46694;54.382;9.708;2023-06-01T11:57:08;22.50;87.60
60860;DHT22;46694;54.382;9.708;2023-06-01T11:59:50;22.40;87.80
60860;DHT22;46694;54.382;9.708;2023-06-01T12:02:29;22.50;88.20
60860;DHT22;46694;54.382;9.708;2023-06-01T12:05:09;22.50;88.70
60860;DHT22;46694;54.382;9.708;2023-06-01T12:07:50;22.40;89.30
60860;DHT22;46694;54.382;9.708;2023-06-01T12:10:30;22.50;89.60
60860;DHT22;46694;54.382;9.708;2023-06-01T12:13:10;22.40;89.30
60860;DHT22;46694;54.382;9.708;2023-06-01T12:15:51;22.20;88.70
60860;DHT22;46694;54.382;9.708;2023-06-01T12:18:32;22.20;88.50
60860;DHT22;46694;54.382;9.708;2023-06-01T12:21:12;22.00;88.50
60860;DHT22;46694;54.382;9.708;2023-06-01T12:23:52;21.90;89.00
60860;DHT22;46694;54.382;9.708;2023-06-01T12:26:35;22.00;88.90
60860;DHT22;46694;54.382;9.708;2023-06-01T12:29:15;22.10;89.20
60860;DHT22;46694;54.382;9.708;2023-06-01T12:31:55;22.20;88.80
60860;DHT22;46694;54.382;9.708;2023-06-01T12:34:35;22.30;88.70
60860;DHT22;46694;54.382;9.708;2023-06-01T12:37:16;22.40;88.50
60860;DHT22;46694;54.382;9.708;2023-06-01T12:39:59;22.40;87.90
60860;DHT22;46694;54.382;9.708;2023-06-01T12:42:40;22.30;87.80
60860;DHT22;46694;54.382;9.708;2023-06-01T12:45:20;22.10;87.40
60860;DHT22;46694;54.382;9.708;2023-06-01T12:47:59;21.80;87.00
60860;DHT22;46694;54.382;9.708;2023-06-01T12:50:43;21.60;87.00
60860;DHT22;46694;54.382;9.708;2023-06-01T12:53:24;21.50;87.60
60860;DHT22;46694;54.382;9.708;2023-06-01T12:56:03;21.60;87.90
60860;DHT22;46694;54.382;9.708;2023-06-01T12:58:43;21.80;87.70
60860;DHT22;46694;54.382;9.708;2023-06-01T13:01:23;21.70;86.90
60860;DHT22;46694;54.382;9.708;2023-06-01T13:04:02;21.50;87.00
60860;DHT22;46694;54.382;9.708;2023-06-01T13:06:46;21.30;87.10
60860;DHT22;46694;54.382;9.708;2023-06-01T13:09:25;21.20;87.80
60860;DHT22;46694;54.382;9.708;2023-06-01T13:12:05;21.40;87.90
60860;DHT22;46694;54.382;9.708;2023-06-01T13:14:45;21.50;87.80
60860;DHT22;46694;54.382;9.708;2023-06-01T13:17:25;21.50;87.90
60860;DHT22;46694;54.382;9.708;2023-06-01T13:20:06;21.40;88.40
60860;DHT22;46694;54.382;9.708;2023-06-01T13:22:46;21.40;88.50
60860;DHT22;46694;54.382;9.708;2023-06-01T13:25:26;21.50;88.60
60860;DHT22;46694;54.382;9.708;2023-06-01T13:28:05;21.30;87.80
60860;DHT22;46694;54.382;9.708;2023-06-01T13:30:47;21.10;87.30
60860;DHT22;46694;54.382;9.708;2023-06-01T13:33:26;20.90;87.90
60860;DHT22;46694;54.382;9.708;2023-06-01T13:36:06;20.80;89.00
60860;DHT22;46694;54.382;9.708;2023-06-01T13:38:45;20.80;89.80
60860;DHT22;46694;54.382;9.708;2023-06-01T13:41:26;20.80;90.10
60860;DHT22;46694;54.382;9.708;2023-06-01T13:44:05;20.90;89.90
60860;DHT22;46694;54.382;9.708;2023-06-01T13:46:45;21.00;89.60
60860;DHT22;46694;54.382;9.708;2023-06-01T13:49:24;21.10;90.00
60860;DHT22;46694;54.382;9.708;2023-06-01T13:52:04;21.00;90.10
60860;DHT22;46694;54.382;9.708;2023-06-01T13:54:44;20.80;90.50
60860;DHT22;46694;54.382;9.708;2023-06-01T13:57:23;20.80;90.80
60860;DHT22;46694;54.382;9.708;2023-06-01T14:03:08;21.10;91.10
60860;DHT22;46694;54.382;9.708;2023-06-01T14:05:47;21.20;91.00
60860;DHT22;46694;54.382;9.708;2023-06-01T14:08:27;21.30;90.90
60860;DHT22;46694;54.382;9.708;2023-06-01T14:11:06;21.40;90.80
60860;DHT22;46694;54.382;9.708;2023-06-01T14:13:46;21.40;90.70
60860;DHT22;46694;54.382;9.708;2023-06-01T14:16:26;21.40;90.50
60860;DHT22;46694;54.382;9.708;2023-06-01T14:19:05;21.30;90.40
60860;DHT22;46694;54.382;9.708;2023-06-01T14:21:45;21.00;90.40
60860;DHT22;46694;54.382;9.708;2023-06-01T14:24:25;20.50;90.70
60860;DHT22;46694;54.382;9.708;2023-06-01T14:27:04;20.20;91.30
60860;DHT22;46694;54.382;9.708;2023-06-01T14:29:45;20.20;91.80
60860;DHT22;46694;54.382;9.708;2023-06-01T14:32:24;20.30;92.10
60860;DHT22;46694;54.382;9.708;2023-06-01T14:35:05;20.40;91.90
60860;DHT22;46694;54.382;9.708;2023-06-01T14:37:45;20.30;91.90
60860;DHT22;46694;54.382;9.708;2023-06-01T14:40:24;20.30;91.90
60860;DHT22;46694;54.382;9.708;2023-06-01T14:43:04;20.40;91.90
60860;DHT22;46694;54.382;9.708;2023-06-01T14:45:43;20.40;91.80
60860;DHT22;46694;54.382;9.708;2023-06-01T14:48:23;20.50;91.70
60860;DHT22;46694;54.382;9.708;2023-06-01T14:51:04;20.60;91.70
60860;DHT22;46694;54.382;9.708;2023-06-01T14:53:43;20.60;91.60
60860;DHT22;46694;54.382;9.708;2023-06-01T14:56:25;20.60;91.50
60860;DHT22;46694;54.382;9.708;2023-06-01T14:59:05;20.30;91.50
60860;DHT22;46694;54.382;9.708;2023-06-01T15:01:44;20.10;91.60
60860;DHT22;46694;54.382;9.708;2023-06-01T15:04:24;20.00;91.70
60860;DHT22;46694;54.382;9.708;2023-06-01T15:07:04;20.00;91.80
60860;DHT22;46694;54.382;9.708;2023-06-01T15:09:44;19.80;91.90
60860;DHT22;46694;54.382;9.708;2023-06-01T15:12:23;19.80;92.00
60860;DHT22;46694;54.382;9.708;2023-06-01T15:15:03;19.60;92.00
60860;DHT22;46694;54.382;9.708;2023-06-01T15:17:44;19.70;92.20
60860;DHT22;46694;54.382;9.708;2023-06-01T15:20:23;19.70;92.20
60860;DHT22;46694;54.382;9.708;2023-06-01T15:23:03;19.70;92.50
60860;DHT22;46694;54.382;9.708;2023-06-01T15:25:42;19.70;92.50
60860;DHT22;46694;54.382;9.708;2023-06-01T15:28:22;19.70;92.20
60860;DHT22;46694;54.382;9.708;2023-06-01T15:31:01;19.70;92.20
60860;DHT22;46694;54.382;9.708;2023-06-01T15:33:41;19.60;92.20
60860;DHT22;46694;54.382;9.708;2023-06-01T15:36:21;19.60;92.20
60860;DHT22;46694;54.382;9.708;2023-06-01T15:39:01;19.50;92.20
60860;DHT22;46694;54.382;9.708;2023-06-01T15:41:41;19.30;92.20
60860;DHT22;46694;54.382;9.708;2023-06-01T15:44:20;19.20;92.60
60860;DHT22;46694;54.382;9.708;2023-06-01T15:47:00;19.30;92.80
60860;DHT22;46694;54.382;9.708;2023-06-01T15:49:41;19.40;93.00
60860;DHT22;46694;54.382;9.708;2023-06-01T15:52:21;19.40;92.90
60860;DHT22;46694;54.382;9.708;2023-06-01T15:55:01;19.20;92.70
60860;DHT22;46694;54.382;9.708;2023-06-01T15:57:40;19.00;93.00
60860;DHT22;46694;54.382;9.708;2023-06-01T16:00:20;18.90;93.10
60860;DHT22;46694;54.382;9.708;2023-06-01T16:02:59;19.00;93.20
60860;DHT22;46694;54.382;9.708;2023-06-01T16:05:39;18.80;93.10
60860;DHT22;46694;54.382;9.708;2023-06-01T16:08:19;18.70;93.30
60860;DHT22;46694;54.382;9.708;2023-06-01T16:10:58;18.70;93.50
60860;DHT22;46694;54.382;9.708;2023-06-01T16:13:38;18.80;93.70
60860;DHT22;46694;54.382;9.708;2023-06-01T16:16:17;19.00;93.70
60860;DHT22;46694;54.382;9.708;2023-06-01T16:18:58;18.90;93.60
60860;DHT22;46694;54.382;9.708;2023-06-01T16:21:38;18.90;93.70
60860;DHT22;46694;54.382;9.708;2023-06-01T16:24:17;18.80;93.70
60860;DHT22;46694;54.382;9.708;2023-06-01T16:26:57;18.60;93.90
60860;DHT22;46694;54.382;9.708;2023-06-01T16:29:36;18.50;94.10
60860;DHT22;46694;54.382;9.708;2023-06-01T16:32:16;18.60;94.20
60860;DHT22;46694;54.382;9.708;2023-06-01T16:34:56;18.60;94.30
60860;DHT22;46694;54.382;9.708;2023-06-01T16:37:35;18.60;94.30
60860;DHT22;46694;54.382;9.708;2023-06-01T16:40:15;18.60;94.30
60860;DHT22;46694;54.382;9.708;2023-06-01T16:42:56;18.60;94.30
60860;DHT22;46694;54.382;9.708;2023-06-01T16:45:36;18.50;94.20
60860;DHT22;46694;54.382;9.708;2023-06-01T16:48:15;18.40;94.30
60860;DHT22;46694;54.382;9.708;2023-06-01T16:50:55;18.40;94.30
60860;DHT22;46694;54.382;9.708;2023-06-01T16:53:35;18.20;94.40
60860;DHT22;46694;54.382;9.708;2023-06-01T16:56:15;18.00;94.60
60860;DHT22;46694;54.382;9.708;2023-06-01T16:58:54;17.90;94.90
60860;DHT22;46694;54.382;9.708;2023-06-01T17:01:34;17.80;95.10
60860;DHT22;46694;54.382;9.708;2023-06-01T17:04:14;17.80;95.40
60860;DHT22;46694;54.382;9.708;2023-06-01T17:06:54;17.80;95.50
60860;DHT22;46694;54.382;9.708;2023-06-01T17:09:34;17.70;95.60
60860;DHT22;46694;54.382;9.708;2023-06-01T17:12:14;17.70;95.80
60860;DHT22;46694;54.382;9.708;2023-06-01T17:14:56;17.70;96.00
60860;DHT22;46694;54.382;9.708;2023-06-01T17:17:36;17.60;96.10
60860;DHT22;46694;54.382;9.708;2023-06-01T17:20:17;17.60;96.30
60860;DHT22;46694;54.382;9.708;2023-06-01T17:22:56;17.50;96.40
60860;DHT22;46694;54.382;9.708;2023-06-01T17:25:36;17.50;96.40